This is the latest recevied weather packets stored in our database for station/object IK2ILW-4. If no packets are shown the sender has not sent any weather packets the latest 10 day(s).
| Time | Temp. | Humidity | Pressure | Rain* | Wind** | Luminosity | Snow |
|---|---|---|---|---|---|---|---|
| 1777112281 | 16.11° C | 49% | 1016 hPa | 0 mm | - | 814 W/m² | - |
| 1777111970 | 16.11° C | 49% | 1016.2 hPa | 0 mm | - | 810 W/m² | - |
| 1777111655 | 15.56° C | 51% | 1016.2 hPa | 0 mm | - | 802 W/m² | - |
| 1777111372 | 16.11° C | 50% | 1016.2 hPa | 0 mm | - | 789 W/m² | - |
| 1777103583 | 13.89° C | 50% | 1016.6 hPa | 0 mm | - | 580 W/m² | - |
| 1777103268 | 13.89° C | 50% | 1016.6 hPa | 0 mm | - | 568 W/m² | - |
| 1777102984 | 13.33° C | 51% | 1016.7 hPa | 0 mm | - | 555 W/m² | - |
| 1777102669 | 13.33° C | 51% | 1016.7 hPa | 0 mm | - | 541 W/m² | - |
| 1777102385 | 13.33° C | 52% | 1016.7 hPa | 0 mm | - | 526 W/m² | - |
| 1777102070 | 13.33° C | 53% | 1016.8 hPa | 0 mm | - | 512 W/m² | - |
| 1777101756 | 12.78° C | 54% | 1016.8 hPa | 0 mm | - | 497 W/m² | - |
| 1777101457 | 12.78° C | 55% | 1016.8 hPa | 0 mm | - | 483 W/m² | - |
| 1777101173 | 12.78° C | 53% | 1016.7 hPa | 0 mm | - | 473 W/m² | - |
| 1777100859 | 12.78° C | 54% | 1016.7 hPa | 0 mm | - | 455 W/m² | - |
| 1777100576 | 12.22° C | 56% | 1016.7 hPa | 0 mm | - | 441 W/m² | - |
| 1777100261 | 12.78° C | 54% | 1016.8 hPa | 0 mm | - | 429 W/m² | - |
| 1777099977 | 12.78° C | 55% | 1016.8 hPa | 0 mm | - | 415 W/m² | - |
| 1777099666 | 12.22° C | 58% | 1016.8 hPa | 0 mm | - | 401 W/m² | - |
| 1777099382 | 11.67° C | 59% | 1015.8 hPa | 0 mm | - | 383 W/m² | - |
| 1777099065 | 11.67° C | 58% | 1015.8 hPa | 0 mm | - | 369 W/m² | - |
| 1777098782 | 11.67° C | 59% | 1015.8 hPa | 0 mm | - | 355 W/m² | - |
| 1777098466 | 11.11° C | 60% | 1015.7 hPa | 0 mm | - | 343 W/m² | - |
| 1777098182 | 11.11° C | 59% | 1015.7 hPa | 0 mm | - | 327 W/m² | - |
| 1777097867 | 11.11° C | 60% | 1015.7 hPa | 0 mm | - | 309 W/m² | - |
| 1777097583 | 11.11° C | 59% | 1016.5 hPa | 0 mm | - | 295 W/m² | - |
* Rain since midnight (hover to see other rain measurements)
** Current wind speed in m/s (hover to see current wind gust speed)